map of TPQ home
TPQ - Airport
Location
City:  Tepic, Nayarit, México
Name:Amado Nervo National
ICAO:MMEP
IATA:TPQ

Details
Type:Airport (Aerodrome, Airfield)
Use:Public/Civil
Latitude:21°25'10"N (21.419453)
Longitude:104°50'33"W (-104.842580)
Datum:WGS 1984
Elevation:3020 ft (920 m)
Variation:6.69°E (WMM2015 magnetic declination)
-0.10° annual change
Runways:1
Longest:7546 × 148 ft (2300 × 45 m), paved

Time
Time Zone:UTC-7 (DST-6)
Local Time:

Weather
METAR:MMEP 161342Z 00000KT 12SM FEW080 BKN220 06/06 A3018 RMK 8/078

Related Locations
Nearby:
Farthest:RRG: 11675 mi / 18790 km
Plaine Corail [Sir Gaëtan Duval Airport (Plaine Corail Airport)], Rodrigues Island, MU

Find:

   beyond  
but within

Other Information
Maps:
NOTAMs:
Links:
Sources:

  
  • flag of México
  • flag of Nayarit
  

Sectional Chart

Flight Planning
at skyvector.com

Satellite Image

Google Maps Satellite view

 

Copyright © 2004-2018 Karl L. Swartz. All rights reserved.
The Great Circle Mapper name and logo are trademarks of the Great Circle Mapper.
All other trademarks mentioned herein belong to their respective owners.
Please see credits for attibutions and further copyright information.

  Follow gcmap on Facebook Follow gcmap on Twitter Follow gcmap on Google+ GCmap on LinkedIn

hCard Microformat

Geo Microformat